Главная страница
METAR-TAF:

METAR-TAF

Аэропорты :

Корор, Бабелтуап, Палау

широта: 07-22N, долгота: 134-32E, высота над уровнем моря: 54 м

Текущие метеонаблюдения

Эта сводка был подготовлена 34 минут назад, в 06:50 UTC
Ветер 6 Узел от восточно-северо-восточный
Температура 29°C
Влажность 74%
Давление 1006 hPa
Видимость: 24.1 км
Отдельные облака на высоте 1700 фута
Рассеянная облачность на высоте 12000 фута
Рассеянная облачность на высоте 30000 фута

METAR: PTRO 130650Z 07006KT 15SM SCT017 BKN120 BKN300 29/24 A2971

Время: 16:24 (07:24 UTC)

Прогноз

Эта сводка был подготовлена 2 часа и 1 минут назад, в 05:23 UTC
Прогноз действительный с 13-го 06 UTC до 14-го 06 UTC
Ветер 7 Узел от восточно-юго-восточный
Видимость: 10 км
Отдельные облака на высоте 1700 фута
Отдельные облака на высоте 12000 фута
ливни в окрестностях

TAF: PTRO 130523Z 1306/1406 12007KT P6SM VCSH SCT017 SCT120

Метеонаблюдения и прогнозы для более 4000 аэропортов (сводки METAR и TAF).

Имеющиеся станции представлены на карте желтыми и красными точками.

Чтобы увидеть название станции, наведите на нее мышь.

Затем щелкните, чтобы увидеть метеонаблюдения и метеопрогнозы.

Управление картой: чтобы увеличить масштаб, щелкните зеленые кнопки с черным крестиком; чтобы уменьшить масштаб, щелкните зеленую кнопку с тире; для просмотра соседних карт щелкайте зеленые стрелки.


METAR-TAF: